sensor_id;sensor_type;location;lat;lon;timestamp;temperature;humidity
38456;DHT22;24237;50.106;20.014;2022-08-05T00:01:26;21.60;99.00
38456;DHT22;24237;50.106;20.014;2022-08-05T00:03:52;21.60;99.50
38456;DHT22;24237;50.106;20.014;2022-08-05T00:06:18;21.60;99.30
38456;DHT22;24237;50.106;20.014;2022-08-05T00:08:43;21.60;99.00
38456;DHT22;24237;50.106;20.014;2022-08-05T00:11:12;21.60;99.10
38456;DHT22;24237;50.106;20.014;2022-08-05T00:13:40;21.60;99.30
38456;DHT22;24237;50.106;20.014;2022-08-05T00:16:07;21.60;99.80
38456;DHT22;24237;50.106;20.014;2022-08-05T00:18:34;21.50;99.90
38456;DHT22;24237;50.106;20.014;2022-08-05T00:21:00;21.50;99.90
38456;DHT22;24237;50.106;20.014;2022-08-05T00:23:26;21.50;99.90
38456;DHT22;24237;50.106;20.014;2022-08-05T00:25:52;21.50;99.90
38456;DHT22;24237;50.106;20.014;2022-08-05T00:28:17;21.40;99.90
38456;DHT22;24237;50.106;20.014;2022-08-05T00:30:43;21.40;99.90
38456;DHT22;24237;50.106;20.014;2022-08-05T00:33:09;21.30;99.90
38456;DHT22;24237;50.106;20.014;2022-08-05T00:35:36;21.30;99.90
38456;DHT22;24237;50.106;20.014;2022-08-05T00:38:02;21.40;99.90
38456;DHT22;24237;50.106;20.014;2022-08-05T00:40:28;21.40;99.90
38456;DHT22;24237;50.106;20.014;2022-08-05T00:42:55;21.40;99.90
38456;DHT22;24237;50.106;20.014;2022-08-05T00:45:20;21.40;99.90
38456;DHT22;24237;50.106;20.014;2022-08-05T00:47:51;21.40;99.90
38456;DHT22;24237;50.106;20.014;2022-08-05T00:50:17;21.30;99.90
38456;DHT22;24237;50.106;20.014;2022-08-05T00:52:43;21.20;99.90
38456;DHT22;24237;50.106;20.014;2022-08-05T00:55:08;21.20;99.90
38456;DHT22;24237;50.106;20.014;2022-08-05T00:57:34;21.10;99.90
38456;DHT22;24237;50.106;20.014;2022-08-05T01:00:00;21.00;99.90
38456;DHT22;24237;50.106;20.014;2022-08-05T01:02:26;20.90;99.90
38456;DHT22;24237;50.106;20.014;2022-08-05T01:04:52;20.90;99.90
38456;DHT22;24237;50.106;20.014;2022-08-05T01:07:17;20.90;99.90
38456;DHT22;24237;50.106;20.014;2022-08-05T01:09:43;20.80;99.90
38456;DHT22;24237;50.106;20.014;2022-08-05T01:12:12;20.80;99.90
38456;DHT22;24237;50.106;20.014;2022-08-05T01:15:02;20.80;99.90
38456;DHT22;24237;50.106;20.014;2022-08-05T01:17:39;20.70;99.90
38456;DHT22;24237;50.106;20.014;2022-08-05T01:20:36;20.60;99.90
38456;DHT22;24237;50.106;20.014;2022-08-05T01:26:28;20.30;99.90
38456;DHT22;24237;50.106;20.014;2022-08-05T01:29:00;20.20;99.90
38456;DHT22;24237;50.106;20.014;2022-08-05T01:31:42;20.10;99.90
38456;DHT22;24237;50.106;20.014;2022-08-05T01:34:22;20.10;99.90
38456;DHT22;24237;50.106;20.014;2022-08-05T01:36:53;20.00;99.90
38456;DHT22;24237;50.106;20.014;2022-08-05T01:39:20;20.00;99.90
38456;DHT22;24237;50.106;20.014;2022-08-05T01:41:48;19.90;99.90
38456;DHT22;24237;50.106;20.014;2022-08-05T01:44:14;19.90;99.90
38456;DHT22;24237;50.106;20.014;2022-08-05T01:46:44;19.90;99.90
38456;DHT22;24237;50.106;20.014;2022-08-05T01:49:15;20.00;99.90
38456;DHT22;24237;50.106;20.014;2022-08-05T01:51:43;20.00;99.90
38456;DHT22;24237;50.106;20.014;2022-08-05T01:54:12;20.00;99.90
38456;DHT22;24237;50.106;20.014;2022-08-05T01:56:41;20.10;99.90
38456;DHT22;24237;50.106;20.014;2022-08-05T01:59:13;20.10;99.90
38456;DHT22;24237;50.106;20.014;2022-08-05T02:01:40;20.00;99.90
38456;DHT22;24237;50.106;20.014;2022-08-05T02:04:08;20.20;99.90
38456;DHT22;24237;50.106;20.014;2022-08-05T02:06:35;20.20;99.90
38456;DHT22;24237;50.106;20.014;2022-08-05T02:09:02;20.40;99.90
38456;DHT22;24237;50.106;20.014;2022-08-05T02:11:39;20.40;99.90
38456;DHT22;24237;50.106;20.014;2022-08-05T02:14:18;20.40;99.90
38456;DHT22;24237;50.106;20.014;2022-08-05T02:16:49;20.50;99.90
38456;DHT22;24237;50.106;20.014;2022-08-05T02:19:23;20.50;99.90
38456;DHT22;24237;50.106;20.014;2022-08-05T02:22:15;20.40;99.90
38456;DHT22;24237;50.106;20.014;2022-08-05T02:24:46;20.50;99.90
38456;DHT22;24237;50.106;20.014;2022-08-05T02:27:14;20.60;99.90
38456;DHT22;24237;50.106;20.014;2022-08-05T02:29:43;20.70;99.90
38456;DHT22;24237;50.106;20.014;2022-08-05T02:32:10;20.70;99.90
38456;DHT22;24237;50.106;20.014;2022-08-05T02:34:36;20.40;99.90
38456;DHT22;24237;50.106;20.014;2022-08-05T02:37:04;20.50;99.90
38456;DHT22;24237;50.106;20.014;2022-08-05T02:39:34;20.30;99.90
38456;DHT22;24237;50.106;20.014;2022-08-05T02:42:23;20.20;99.90
38456;DHT22;24237;50.106;20.014;2022-08-05T02:44:52;20.40;99.90
38456;DHT22;24237;50.106;20.014;2022-08-05T02:47:20;20.30;99.90
38456;DHT22;24237;50.106;20.014;2022-08-05T02:49:47;20.40;99.90
38456;DHT22;24237;50.106;20.014;2022-08-05T02:52:17;20.20;99.90
38456;DHT22;24237;50.106;20.014;2022-08-05T02:54:44;20.30;99.90
38456;DHT22;24237;50.106;20.014;2022-08-05T02:57:14;20.30;99.90
38456;DHT22;24237;50.106;20.014;2022-08-05T02:59:43;20.00;99.90
38456;DHT22;24237;50.106;20.014;2022-08-05T03:02:12;20.00;99.90
38456;DHT22;24237;50.106;20.014;2022-08-05T03:04:39;19.90;99.90
38456;DHT22;24237;50.106;20.014;2022-08-05T03:07:06;19.90;99.90
38456;DHT22;24237;50.106;20.014;2022-08-05T03:09:32;19.90;99.90
38456;DHT22;24237;50.106;20.014;2022-08-05T03:11:58;20.00;99.90
38456;DHT22;24237;50.106;20.014;2022-08-05T03:14:23;20.10;99.90
38456;DHT22;24237;50.106;20.014;2022-08-05T03:16:49;20.00;99.90
38456;DHT22;24237;50.106;20.014;2022-08-05T03:19:15;20.10;99.90
38456;DHT22;24237;50.106;20.014;2022-08-05T03:21:40;20.30;99.90
38456;DHT22;24237;50.106;20.014;2022-08-05T03:24:07;20.30;99.90
38456;DHT22;24237;50.106;20.014;2022-08-05T03:26:33;20.30;99.90
38456;DHT22;24237;50.106;20.014;2022-08-05T03:28:59;20.00;99.90
38456;DHT22;24237;50.106;20.014;2022-08-05T03:31:29;20.00;99.90
38456;DHT22;24237;50.106;20.014;2022-08-05T03:33:57;20.00;99.90
38456;DHT22;24237;50.106;20.014;2022-08-05T03:36:44;20.10;99.90
38456;DHT22;24237;50.106;20.014;2022-08-05T03:39:09;20.00;99.90
38456;DHT22;24237;50.106;20.014;2022-08-05T03:41:38;20.00;99.90
38456;DHT22;24237;50.106;20.014;2022-08-05T03:44:04;20.20;99.90
38456;DHT22;24237;50.106;20.014;2022-08-05T03:46:29;20.30;99.90
38456;DHT22;24237;50.106;20.014;2022-08-05T03:48:57;20.50;99.90
38456;DHT22;24237;50.106;20.014;2022-08-05T03:51:37;20.80;99.90
38456;DHT22;24237;50.106;20.014;2022-08-05T03:57:13;20.60;99.90
38456;DHT22;24237;50.106;20.014;2022-08-05T03:59:44;20.60;99.90
38456;DHT22;24237;50.106;20.014;2022-08-05T04:02:11;20.50;99.90
38456;DHT22;24237;50.106;20.014;2022-08-05T04:04:38;20.80;99.90
38456;DHT22;24237;50.106;20.014;2022-08-05T04:07:05;20.70;99.90
38456;DHT22;24237;50.106;20.014;2022-08-05T04:09:31;20.70;99.90
38456;DHT22;24237;50.106;20.014;2022-08-05T04:11:57;20.60;99.90
38456;DHT22;24237;50.106;20.014;2022-08-05T04:14:24;20.70;99.90
38456;DHT22;24237;50.106;20.014;2022-08-05T04:16:51;20.70;99.90
38456;DHT22;24237;50.106;20.014;2022-08-05T04:19:19;20.60;99.90
38456;DHT22;24237;50.106;20.014;2022-08-05T04:21:45;20.70;99.90
38456;DHT22;24237;50.106;20.014;2022-08-05T04:24:11;20.80;99.90
38456;DHT22;24237;50.106;20.014;2022-08-05T04:26:37;20.80;99.90
38456;DHT22;24237;50.106;20.014;2022-08-05T04:29:03;21.00;99.90
38456;DHT22;24237;50.106;20.014;2022-08-05T04:31:28;21.00;99.90
38456;DHT22;24237;50.106;20.014;2022-08-05T04:33:54;21.10;99.90
38456;DHT22;24237;50.106;20.014;2022-08-05T04:36:19;21.10;99.90
38456;DHT22;24237;50.106;20.014;2022-08-05T04:38:45;21.20;99.90
38456;DHT22;24237;50.106;20.014;2022-08-05T04:44:26;21.30;99.90
38456;DHT22;24237;50.106;20.014;2022-08-05T04:46:52;21.30;99.90
38456;DHT22;24237;50.106;20.014;2022-08-05T04:49:17;21.60;99.90
38456;DHT22;24237;50.106;20.014;2022-08-05T04:51:43;21.40;99.90
38456;DHT22;24237;50.106;20.014;2022-08-05T04:54:08;21.50;99.90
38456;DHT22;24237;50.106;20.014;2022-08-05T04:56:34;21.50;99.90
38456;DHT22;24237;50.106;20.014;2022-08-05T04:59:00;21.70;99.90
38456;DHT22;24237;50.106;20.014;2022-08-05T05:01:25;22.20;99.90
38456;DHT22;24237;50.106;20.014;2022-08-05T05:03:51;22.30;99.90
38456;DHT22;24237;50.106;20.014;2022-08-05T05:06:17;22.00;99.90
38456;DHT22;24237;50.106;20.014;2022-08-05T05:08:44;22.10;99.90
38456;DHT22;24237;50.106;20.014;2022-08-05T05:11:12;22.10;99.90
38456;DHT22;24237;50.106;20.014;2022-08-05T05:13:38;22.30;99.90
38456;DHT22;24237;50.106;20.014;2022-08-05T05:16:04;22.50;99.90
38456;DHT22;24237;50.106;20.014;2022-08-05T05:18:29;22.60;99.90
38456;DHT22;24237;50.106;20.014;2022-08-05T05:20:55;22.60;99.90
38456;DHT22;24237;50.106;20.014;2022-08-05T05:23:21;22.30;99.90
38456;DHT22;24237;50.106;20.014;2022-08-05T05:25:46;22.60;99.90
38456;DHT22;24237;50.106;20.014;2022-08-05T05:28:12;22.50;99.90
38456;DHT22;24237;50.106;20.014;2022-08-05T05:30:39;22.60;99.90
38456;DHT22;24237;50.106;20.014;2022-08-05T05:33:06;22.60;99.90
38456;DHT22;24237;50.106;20.014;2022-08-05T05:35:35;22.80;99.90
38456;DHT22;24237;50.106;20.014;2022-08-05T05:38:02;22.70;99.90
38456;DHT22;24237;50.106;20.014;2022-08-05T05:40:30;22.80;99.90
38456;DHT22;24237;50.106;20.014;2022-08-05T05:42:56;23.00;99.90
38456;DHT22;24237;50.106;20.014;2022-08-05T05:45:22;23.30;99.90
38456;DHT22;24237;50.106;20.014;2022-08-05T05:47:48;23.50;99.90
38456;DHT22;24237;50.106;20.014;2022-08-05T05:50:15;23.30;99.90
38456;DHT22;24237;50.106;20.014;2022-08-05T05:52:41;23.30;99.90
38456;DHT22;24237;50.106;20.014;2022-08-05T05:55:11;23.30;99.90
38456;DHT22;24237;50.106;20.014;2022-08-05T05:57:39;23.50;99.90
38456;DHT22;24237;50.106;20.014;2022-08-05T06:00:07;23.50;99.90
38456;DHT22;24237;50.106;20.014;2022-08-05T06:02:33;23.90;99.90
38456;DHT22;24237;50.106;20.014;2022-08-05T06:04:58;23.90;99.90
38456;DHT22;24237;50.106;20.014;2022-08-05T06:07:24;24.00;99.90
38456;DHT22;24237;50.106;20.014;2022-08-05T06:09:50;24.10;99.90
38456;DHT22;24237;50.106;20.014;2022-08-05T06:12:16;24.30;99.90
38456;DHT22;24237;50.106;20.014;2022-08-05T06:14:41;24.50;99.90
38456;DHT22;24237;50.106;20.014;2022-08-05T06:17:09;24.60;99.90
38456;DHT22;24237;50.106;20.014;2022-08-05T06:19:35;24.60;99.90
38456;DHT22;24237;50.106;20.014;2022-08-05T06:22:04;24.70;99.90
38456;DHT22;24237;50.106;20.014;2022-08-05T06:24:31;24.90;99.90
38456;DHT22;24237;50.106;20.014;2022-08-05T06:26:57;25.10;99.90
38456;DHT22;24237;50.106;20.014;2022-08-05T06:29:23;25.10;99.90
38456;DHT22;24237;50.106;20.014;2022-08-05T06:31:49;25.40;99.90
38456;DHT22;24237;50.106;20.014;2022-08-05T06:34:15;25.10;99.90
38456;DHT22;24237;50.106;20.014;2022-08-05T06:36:41;25.20;99.90
38456;DHT22;24237;50.106;20.014;2022-08-05T06:39:06;25.40;99.90
38456;DHT22;24237;50.106;20.014;2022-08-05T06:41:32;25.30;99.90
38456;DHT22;24237;50.106;20.014;2022-08-05T06:43:57;25.30;99.90
38456;DHT22;24237;50.106;20.014;2022-08-05T06:46:23;25.30;99.90
38456;DHT22;24237;50.106;20.014;2022-08-05T06:48:49;25.30;99.90
38456;DHT22;24237;50.106;20.014;2022-08-05T06:51:15;25.50;99.90
38456;DHT22;24237;50.106;20.014;2022-08-05T06:53:41;25.50;99.90
38456;DHT22;24237;50.106;20.014;2022-08-05T06:56:06;25.80;99.90
38456;DHT22;24237;50.106;20.014;2022-08-05T06:58:32;26.00;99.90
38456;DHT22;24237;50.106;20.014;2022-08-05T07:01:02;26.00;99.90
38456;DHT22;24237;50.106;20.014;2022-08-05T07:03:28;26.20;99.90
38456;DHT22;24237;50.106;20.014;2022-08-05T07:05:54;26.60;99.90
38456;DHT22;24237;50.106;20.014;2022-08-05T07:08:20;26.70;99.90
38456;DHT22;24237;50.106;20.014;2022-08-05T07:10:50;26.50;99.90
38456;DHT22;24237;50.106;20.014;2022-08-05T07:13:16;26.50;99.90
38456;DHT22;24237;50.106;20.014;2022-08-05T07:16:00;26.90;99.90
38456;DHT22;24237;50.106;20.014;2022-08-05T07:18:44;26.80;99.90
38456;DHT22;24237;50.106;20.014;2022-08-05T07:21:10;26.90;99.90
38456;DHT22;24237;50.106;20.014;2022-08-05T07:23:35;27.20;99.90
38456;DHT22;24237;50.106;20.014;2022-08-05T07:26:02;27.20;99.70
38456;DHT22;24237;50.106;20.014;2022-08-05T07:28:28;27.10;99.90
38456;DHT22;24237;50.106;20.014;2022-08-05T07:30:54;27.60;99.80
38456;DHT22;24237;50.106;20.014;2022-08-05T07:33:23;27.60;99.70
38456;DHT22;24237;50.106;20.014;2022-08-05T07:35:49;27.70;99.70
38456;DHT22;24237;50.106;20.014;2022-08-05T07:38:18;27.70;99.80
38456;DHT22;24237;50.106;20.014;2022-08-05T07:40:44;27.80;99.90
38456;DHT22;24237;50.106;20.014;2022-08-05T07:43:10;28.00;99.50
38456;DHT22;24237;50.106;20.014;2022-08-05T07:45:38;27.90;99.50
38456;DHT22;24237;50.106;20.014;2022-08-05T07:48:04;27.90;99.30
38456;DHT22;24237;50.106;20.014;2022-08-05T07:50:33;28.30;98.80
38456;DHT22;24237;50.106;20.014;2022-08-05T07:52:59;28.40;98.40
38456;DHT22;24237;50.106;20.014;2022-08-05T07:55:25;28.50;98.30
38456;DHT22;24237;50.106;20.014;2022-08-05T07:57:50;28.50;98.10
38456;DHT22;24237;50.106;20.014;2022-08-05T08:00:16;28.40;98.40
38456;DHT22;24237;50.106;20.014;2022-08-05T08:02:42;28.50;98.00
38456;DHT22;24237;50.106;20.014;2022-08-05T08:05:09;28.70;97.90
38456;DHT22;24237;50.106;20.014;2022-08-05T08:07:35;28.90;97.60
38456;DHT22;24237;50.106;20.014;2022-08-05T08:10:00;28.80;97.50
38456;DHT22;24237;50.106;20.014;2022-08-05T08:12:26;28.70;97.80
38456;DHT22;24237;50.106;20.014;2022-08-05T08:14:52;28.40;98.00
38456;DHT22;24237;50.106;20.014;2022-08-05T08:17:18;28.10;98.50
38456;DHT22;24237;50.106;20.014;2022-08-05T08:19:44;28.60;98.10
38456;DHT22;24237;50.106;20.014;2022-08-05T08:22:13;28.90;97.70
38456;DHT22;24237;50.106;20.014;2022-08-05T08:24:41;29.00;97.90
38456;DHT22;24237;50.106;20.014;2022-08-05T08:27:07;29.00;97.70
38456;DHT22;24237;50.106;20.014;2022-08-05T08:29:32;28.90;97.70
38456;DHT22;24237;50.106;20.014;2022-08-05T08:31:58;28.90;97.70
38456;DHT22;24237;50.106;20.014;2022-08-05T08:34:25;29.10;97.60
38456;DHT22;24237;50.106;20.014;2022-08-05T08:36:51;29.10;98.30
38456;DHT22;24237;50.106;20.014;2022-08-05T08:39:17;29.40;97.80
38456;DHT22;24237;50.106;20.014;2022-08-05T08:41:49;29.40;97.50
38456;DHT22;24237;50.106;20.014;2022-08-05T08:44:19;29.70;97.10
38456;DHT22;24237;50.106;20.014;2022-08-05T08:46:46;30.10;96.80
38456;DHT22;24237;50.106;20.014;2022-08-05T08:49:18;30.10;96.70
38456;DHT22;24237;50.106;20.014;2022-08-05T08:52:11;30.30;95.60
38456;DHT22;24237;50.106;20.014;2022-08-05T08:54:37;30.50;95.00
38456;DHT22;24237;50.106;20.014;2022-08-05T08:57:06;30.60;95.20
38456;DHT22;24237;50.106;20.014;2022-08-05T08:59:32;30.60;95.40
38456;DHT22;24237;50.106;20.014;2022-08-05T09:01:59;30.70;95.30
38456;DHT22;24237;50.106;20.014;2022-08-05T09:04:26;30.90;94.70
38456;DHT22;24237;50.106;20.014;2022-08-05T09:06:52;30.80;94.60
38456;DHT22;24237;50.106;20.014;2022-08-05T09:09:17;30.60;94.30
38456;DHT22;24237;50.106;20.014;2022-08-05T09:11:43;30.40;94.40
38456;DHT22;24237;50.106;20.014;2022-08-05T09:14:10;30.40;94.80
38456;DHT22;24237;50.106;20.014;2022-08-05T09:16:38;30.40;94.40
38456;DHT22;24237;50.106;20.014;2022-08-05T09:19:03;30.50;94.10
38456;DHT22;24237;50.106;20.014;2022-08-05T09:21:29;30.50;94.00
38456;DHT22;24237;50.106;20.014;2022-08-05T09:24:04;30.70;93.90
38456;DHT22;24237;50.106;20.014;2022-08-05T09:26:32;30.60;94.00
38456;DHT22;24237;50.106;20.014;2022-08-05T09:28:59;30.80;93.80
38456;DHT22;24237;50.106;20.014;2022-08-05T09:31:26;31.20;93.50
38456;DHT22;24237;50.106;20.014;2022-08-05T09:33:56;31.30;93.50
38456;DHT22;24237;50.106;20.014;2022-08-05T09:39:09;31.50;92.90
38456;DHT22;24237;50.106;20.014;2022-08-05T09:41:53;31.50;92.60
38456;DHT22;24237;50.106;20.014;2022-08-05T09:44:41;31.40;92.70
38456;DHT22;24237;50.106;20.014;2022-08-05T09:47:13;31.50;92.90
38456;DHT22;24237;50.106;20.014;2022-08-05T09:49:44;31.90;92.40
38456;DHT22;24237;50.106;20.014;2022-08-05T09:52:20;32.00;92.20
38456;DHT22;24237;50.106;20.014;2022-08-05T09:57:34;32.10;92.00
38456;DHT22;24237;50.106;20.014;2022-08-05T10:00:04;31.90;92.00
38456;DHT22;24237;50.106;20.014;2022-08-05T10:02:43;32.10;92.00
38456;DHT22;24237;50.106;20.014;2022-08-05T10:05:15;32.20;92.30
38456;DHT22;24237;50.106;20.014;2022-08-05T10:10:16;32.00;91.50
38456;DHT22;24237;50.106;20.014;2022-08-05T10:12:59;32.20;91.40
38456;DHT22;24237;50.106;20.014;2022-08-05T10:19:05;32.20;91.30
38456;DHT22;24237;50.106;20.014;2022-08-05T10:21:34;31.80;91.50
38456;DHT22;24237;50.106;20.014;2022-08-05T10:24:39;31.80;91.10
38456;DHT22;24237;50.106;20.014;2022-08-05T10:27:07;32.00;90.60
38456;DHT22;24237;50.106;20.014;2022-08-05T10:29:34;32.00;91.60
38456;DHT22;24237;50.106;20.014;2022-08-05T10:32:05;32.30;90.80
38456;DHT22;24237;50.106;20.014;2022-08-05T10:34:31;32.60;91.10
38456;DHT22;24237;50.106;20.014;2022-08-05T10:36:57;32.70;90.50
38456;DHT22;24237;50.106;20.014;2022-08-05T10:39:29;32.80;90.00
38456;DHT22;24237;50.106;20.014;2022-08-05T10:42:09;32.70;89.60
38456;DHT22;24237;50.106;20.014;2022-08-05T10:44:43;32.70;89.40
38456;DHT22;24237;50.106;20.014;2022-08-05T10:47:13;32.80;88.90
38456;DHT22;24237;50.106;20.014;2022-08-05T10:50:05;32.70;87.50
38456;DHT22;24237;50.106;20.014;2022-08-05T10:52:51;32.80;87.60
38456;DHT22;24237;50.106;20.014;2022-08-05T10:55:25;32.70;87.80
38456;DHT22;24237;50.106;20.014;2022-08-05T10:58:09;32.50;87.60
38456;DHT22;24237;50.106;20.014;2022-08-05T11:00:48;32.90;88.20
38456;DHT22;24237;50.106;20.014;2022-08-05T11:03:14;32.80;87.30
38456;DHT22;24237;50.106;20.014;2022-08-05T11:05:40;33.10;88.30
38456;DHT22;24237;50.106;20.014;2022-08-05T11:08:08;33.00;88.00
38456;DHT22;24237;50.106;20.014;2022-08-05T11:10:37;33.20;89.00
38456;DHT22;24237;50.106;20.014;2022-08-05T11:13:09;33.00;88.90
38456;DHT22;24237;50.106;20.014;2022-08-05T11:15:38;33.00;89.30
38456;DHT22;24237;50.106;20.014;2022-08-05T11:18:23;33.30;86.70
38456;DHT22;24237;50.106;20.014;2022-08-05T11:20:50;33.00;86.40
38456;DHT22;24237;50.106;20.014;2022-08-05T11:23:52;33.10;87.60
38456;DHT22;24237;50.106;20.014;2022-08-05T11:38:13;34.50;82.50
38456;DHT22;24237;50.106;20.014;2022-08-05T11:41:01;34.80;83.00
38456;DHT22;24237;50.106;20.014;2022-08-05T11:43:28;34.50;82.00
38456;DHT22;24237;50.106;20.014;2022-08-05T11:45:54;35.10;81.80
38456;DHT22;24237;50.106;20.014;2022-08-05T11:48:22;35.20;79.10
38456;DHT22;24237;50.106;20.014;2022-08-05T11:50:52;35.20;79.80
38456;DHT22;24237;50.106;20.014;2022-08-05T11:53:18;35.20;79.60
38456;DHT22;24237;50.106;20.014;2022-08-05T11:56:00;35.20;79.00
38456;DHT22;24237;50.106;20.014;2022-08-05T11:58:43;35.20;80.50
38456;DHT22;24237;50.106;20.014;2022-08-05T12:01:10;35.50;79.30
38456;DHT22;24237;50.106;20.014;2022-08-05T12:03:55;35.20;79.70
38456;DHT22;24237;50.106;20.014;2022-08-05T12:06:25;35.20;80.70
38456;DHT22;24237;50.106;20.014;2022-08-05T12:09:01;35.60;79.40
38456;DHT22;24237;50.106;20.014;2022-08-05T12:11:36;35.90;78.80
38456;DHT22;24237;50.106;20.014;2022-08-05T12:14:06;36.00;77.80
38456;DHT22;24237;50.106;20.014;2022-08-05T12:16:37;35.60;77.90
38456;DHT22;24237;50.106;20.014;2022-08-05T12:19:13;35.80;77.30
38456;DHT22;24237;50.106;20.014;2022-08-05T12:21:45;35.30;77.70
38456;DHT22;24237;50.106;20.014;2022-08-05T12:24:16;35.70;77.10
38456;DHT22;24237;50.106;20.014;2022-08-05T12:26:51;35.60;76.90
38456;DHT22;24237;50.106;20.014;2022-08-05T12:29:25;35.30;77.10
38456;DHT22;24237;50.106;20.014;2022-08-05T12:31:55;35.70;76.70
38456;DHT22;24237;50.106;20.014;2022-08-05T12:34:37;35.50;75.70
38456;DHT22;24237;50.106;20.014;2022-08-05T12:37:12;35.80;74.60
38456;DHT22;24237;50.106;20.014;2022-08-05T12:39:51;36.10;74.10
38456;DHT22;24237;50.106;20.014;2022-08-05T12:42:18;36.80;74.40
38456;DHT22;24237;50.106;20.014;2022-08-05T12:44:48;37.90;73.70
38456;DHT22;24237;50.106;20.014;2022-08-05T12:47:32;38.90;74.90
38456;DHT22;24237;50.106;20.014;2022-08-05T12:49:59;39.40;71.60
38456;DHT22;24237;50.106;20.014;2022-08-05T12:52:25;40.00;70.90
38456;DHT22;24237;50.106;20.014;2022-08-05T12:54:51;39.50;71.30
38456;DHT22;24237;50.106;20.014;2022-08-05T12:57:17;39.20;72.10
38456;DHT22;24237;50.106;20.014;2022-08-05T12:59:49;39.30;70.70
38456;DHT22;24237;50.106;20.014;2022-08-05T13:02:34;39.80;70.40
38456;DHT22;24237;50.106;20.014;2022-08-05T13:05:05;39.80;68.60
38456;DHT22;24237;50.106;20.014;2022-08-05T13:07:30;39.80;69.00
38456;DHT22;24237;50.106;20.014;2022-08-05T13:09:58;40.00;67.70
38456;DHT22;24237;50.106;20.014;2022-08-05T13:12:38;40.30;67.80
38456;DHT22;24237;50.106;20.014;2022-08-05T13:15:05;41.10;67.80
38456;DHT22;24237;50.106;20.014;2022-08-05T13:17:34;41.40;67.00
38456;DHT22;24237;50.106;20.014;2022-08-05T13:20:32;40.90;65.70
38456;DHT22;24237;50.106;20.014;2022-08-05T13:23:21;41.00;66.70
38456;DHT22;24237;50.106;20.014;2022-08-05T13:25:47;40.90;65.50
38456;DHT22;24237;50.106;20.014;2022-08-05T13:28:12;41.40;64.50
38456;DHT22;24237;50.106;20.014;2022-08-05T13:30:38;40.80;64.50
38456;DHT22;24237;50.106;20.014;2022-08-05T13:33:04;40.80;64.20
38456;DHT22;24237;50.106;20.014;2022-08-05T13:35:30;40.80;63.90
38456;DHT22;24237;50.106;20.014;2022-08-05T13:37:56;41.00;63.90
38456;DHT22;24237;50.106;20.014;2022-08-05T13:40:21;40.50;64.80
38456;DHT22;24237;50.106;20.014;2022-08-05T13:43:05;40.60;64.50
38456;DHT22;24237;50.106;20.014;2022-08-05T13:45:34;41.40;64.50
38456;DHT22;24237;50.106;20.014;2022-08-05T13:48:08;42.10;63.70
38456;DHT22;24237;50.106;20.014;2022-08-05T13:50:34;42.50;63.30
38456;DHT22;24237;50.106;20.014;2022-08-05T13:53:03;42.70;62.90
38456;DHT22;24237;50.106;20.014;2022-08-05T13:55:28;42.40;62.70
38456;DHT22;24237;50.106;20.014;2022-08-05T13:57:54;42.20;62.10
38456;DHT22;24237;50.106;20.014;2022-08-05T14:00:20;41.90;61.20
38456;DHT22;24237;50.106;20.014;2022-08-05T14:02:45;42.10;62.10
38456;DHT22;24237;50.106;20.014;2022-08-05T14:05:11;42.40;62.20
38456;DHT22;24237;50.106;20.014;2022-08-05T14:07:49;42.10;62.70
38456;DHT22;24237;50.106;20.014;2022-08-05T14:10:29;42.00;61.30
38456;DHT22;24237;50.106;20.014;2022-08-05T14:12:55;42.50;62.30
38456;DHT22;24237;50.106;20.014;2022-08-05T14:15:20;42.40;61.70
38456;DHT22;24237;50.106;20.014;2022-08-05T14:17:46;42.50;61.00
38456;DHT22;24237;50.106;20.014;2022-08-05T14:20:12;42.20;61.50
38456;DHT22;24237;50.106;20.014;2022-08-05T14:22:38;42.30;61.90
38456;DHT22;24237;50.106;20.014;2022-08-05T14:25:04;42.70;61.10
38456;DHT22;24237;50.106;20.014;2022-08-05T14:27:30;43.00;60.30
38456;DHT22;24237;50.106;20.014;2022-08-05T14:29:56;42.80;60.20
38456;DHT22;24237;50.106;20.014;2022-08-05T14:32:22;42.70;60.30
38456;DHT22;24237;50.106;20.014;2022-08-05T14:34:47;42.90;60.70
38456;DHT22;24237;50.106;20.014;2022-08-05T14:37:13;42.80;60.20
38456;DHT22;24237;50.106;20.014;2022-08-05T14:39:39;42.70;59.70
38456;DHT22;24237;50.106;20.014;2022-08-05T14:42:04;42.40;59.90
38456;DHT22;24237;50.106;20.014;2022-08-05T14:44:30;42.50;60.20
38456;DHT22;24237;50.106;20.014;2022-08-05T14:46:59;42.80;60.50
38456;DHT22;24237;50.106;20.014;2022-08-05T14:49:24;42.70;60.30
38456;DHT22;24237;50.106;20.014;2022-08-05T14:51:50;42.70;60.30
38456;DHT22;24237;50.106;20.014;2022-08-05T14:54:16;42.50;60.40
38456;DHT22;24237;50.106;20.014;2022-08-05T14:56:41;41.60;60.50
38456;DHT22;24237;50.106;20.014;2022-08-05T14:59:10;42.10;60.70
38456;DHT22;24237;50.106;20.014;2022-08-05T15:01:39;42.20;60.10
38456;DHT22;24237;50.106;20.014;2022-08-05T15:04:05;42.10;60.20
38456;DHT22;24237;50.106;20.014;2022-08-05T15:06:34;41.90;60.60
38456;DHT22;24237;50.106;20.014;2022-08-05T15:09:00;42.10;59.60
38456;DHT22;24237;50.106;20.014;2022-08-05T15:11:26;42.30;59.80
38456;DHT22;24237;50.106;20.014;2022-08-05T15:13:52;42.60;59.80
38456;DHT22;24237;50.106;20.014;2022-08-05T15:16:21;42.10;59.70
38456;DHT22;24237;50.106;20.014;2022-08-05T15:18:46;42.00;59.60
38456;DHT22;24237;50.106;20.014;2022-08-05T15:21:12;42.30;60.50
38456;DHT22;24237;50.106;20.014;2022-08-05T15:23:38;42.40;60.10
38456;DHT22;24237;50.106;20.014;2022-08-05T15:26:03;42.30;59.80
38456;DHT22;24237;50.106;20.014;2022-08-05T15:28:35;42.00;60.30
38456;DHT22;24237;50.106;20.014;2022-08-05T15:31:00;42.00;60.20
38456;DHT22;24237;50.106;20.014;2022-08-05T15:33:26;41.90;59.70
38456;DHT22;24237;50.106;20.014;2022-08-05T15:35:52;42.00;59.00
38456;DHT22;24237;50.106;20.014;2022-08-05T15:38:18;42.30;59.40
38456;DHT22;24237;50.106;20.014;2022-08-05T15:40:43;42.50;58.40
38456;DHT22;24237;50.106;20.014;2022-08-05T15:43:11;43.00;58.40
38456;DHT22;24237;50.106;20.014;2022-08-05T15:45:44;43.20;58.60
38456;DHT22;24237;50.106;20.014;2022-08-05T15:48:09;42.90;58.90
38456;DHT22;24237;50.106;20.014;2022-08-05T15:50:35;42.50;58.70
38456;DHT22;24237;50.106;20.014;2022-08-05T15:53:01;42.80;58.70
38456;DHT22;24237;50.106;20.014;2022-08-05T15:55:33;42.70;58.30
38456;DHT22;24237;50.106;20.014;2022-08-05T15:57:58;42.60;58.50
38456;DHT22;24237;50.106;20.014;2022-08-05T16:00:24;41.90;59.20